createdAt,value
2022-10-11T00:00:48.585Z,8.92
2022-10-11T00:01:48.622Z,8.89
2022-10-11T00:02:48.526Z,8.86
2022-10-11T00:03:48.524Z,8.87
2022-10-11T00:04:48.515Z,8.82
2022-10-11T00:05:48.515Z,8.84
2022-10-11T00:06:48.491Z,8.82
2022-10-11T00:07:48.472Z,8.82
2022-10-11T00:08:48.453Z,8.81
2022-10-11T00:09:48.447Z,8.81
2022-10-11T00:10:48.437Z,8.78
2022-10-11T00:11:48.567Z,8.78
2022-10-11T00:12:48.413Z,8.77
2022-10-11T00:13:48.403Z,8.75
2022-10-11T00:14:48.414Z,8.74
2022-10-11T00:15:48.383Z,8.72
2022-10-11T00:16:48.453Z,8.72
2022-10-11T00:17:48.363Z,8.69
2022-10-11T00:18:48.343Z,8.68
2022-10-11T00:19:48.344Z,8.68
2022-10-11T00:20:48.323Z,8.66
2022-10-11T00:21:48.325Z,8.64
2022-10-11T00:22:48.423Z,8.64
2022-10-11T00:23:48.293Z,8.63
2022-10-11T00:24:48.292Z,8.61
2022-10-11T00:25:48.263Z,8.59
2022-10-11T00:26:48.276Z,8.60
2022-10-11T00:27:48.333Z,8.56
2022-10-11T00:28:48.293Z,8.56
2022-10-11T00:29:48.222Z,8.57
2022-10-11T00:30:48.230Z,8.56
2022-10-11T00:31:48.212Z,8.52
2022-10-11T00:32:48.193Z,8.52
2022-10-11T00:33:48.202Z,8.50
2022-10-11T00:34:48.181Z,8.49
2022-10-11T00:35:48.160Z,8.50
2022-10-11T00:36:48.171Z,8.46
2022-10-11T00:37:48.191Z,8.45
2022-10-11T00:38:48.161Z,8.44
2022-10-11T00:39:48.156Z,8.42
2022-10-11T00:40:48.171Z,8.41
2022-10-11T00:41:48.142Z,8.39
2022-10-11T00:42:48.143Z,8.38
2022-10-11T00:43:48.101Z,8.36
2022-10-11T00:44:48.102Z,8.35
2022-10-11T00:45:48.082Z,8.34
2022-10-11T00:46:48.092Z,8.32
2022-10-11T00:47:48.071Z,8.31
2022-10-11T00:48:48.060Z,8.31
2022-10-11T00:49:48.044Z,8.28
2022-10-11T00:50:48.040Z,8.27
2022-10-11T00:51:48.030Z,8.27
2022-10-11T00:52:48.000Z,8.24
2022-10-11T00:53:47.978Z,8.24
2022-10-11T00:54:47.981Z,8.21
2022-10-11T00:55:47.950Z,8.20
2022-10-11T00:56:47.970Z,8.20
2022-10-11T00:57:47.933Z,8.20
2022-10-11T00:58:47.925Z,8.18
2022-10-11T00:59:47.911Z,8.18
2022-10-11T01:00:47.901Z,8.17
2022-10-11T01:01:47.966Z,8.17
2022-10-11T01:02:47.871Z,8.13
2022-10-11T01:03:47.850Z,8.14
2022-10-11T01:04:47.859Z,8.13
2022-10-11T01:05:47.840Z,8.13
2022-10-11T01:06:47.876Z,8.11
2022-10-11T01:07:47.871Z,8.09
2022-10-11T01:08:47.865Z,8.09
2022-10-11T01:09:47.838Z,8.08
2022-10-11T01:10:47.790Z,8.06
2022-10-11T01:11:47.792Z,8.05
2022-10-11T01:12:47.767Z,8.03
2022-10-11T01:13:47.747Z,8.03
2022-10-11T01:14:47.747Z,8.02
2022-10-11T01:15:47.729Z,8.02
2022-10-11T01:16:47.735Z,7.98
2022-10-11T01:17:47.716Z,7.99
2022-10-11T01:18:47.697Z,7.98
2022-10-11T01:19:47.696Z,7.95
2022-10-11T01:20:47.678Z,7.95
2022-10-11T01:21:47.670Z,7.93
2022-10-11T01:22:47.687Z,7.93
2022-10-11T01:23:47.645Z,7.91
2022-10-11T01:24:47.637Z,7.90
2022-10-11T01:25:47.626Z,7.88
2022-10-11T01:26:47.638Z,7.85
2022-10-11T01:27:47.611Z,7.85
2022-10-11T01:28:47.649Z,7.84
2022-10-11T01:29:47.585Z,7.81
2022-10-11T01:30:47.573Z,7.83
2022-10-11T01:31:47.566Z,7.83
2022-10-11T01:32:47.606Z,7.78
2022-10-11T01:33:47.537Z,7.78
2022-10-11T01:34:47.555Z,7.75
2022-10-11T01:35:47.547Z,7.75
2022-10-11T01:36:47.545Z,7.74
2022-10-11T01:37:47.557Z,7.75
2022-10-11T01:38:47.525Z,7.75
2022-10-11T01:39:47.516Z,7.74
2022-10-11T01:40:47.484Z,7.72
2022-10-11T01:41:47.475Z,7.67
2022-10-11T01:42:47.468Z,7.69
2022-10-11T01:43:47.444Z,7.67
2022-10-11T01:44:47.454Z,7.67
2022-10-11T01:45:47.441Z,7.67
2022-10-11T01:46:47.404Z,7.66
2022-10-11T01:47:47.408Z,7.64
2022-10-11T01:48:47.384Z,7.64
2022-10-11T01:49:47.364Z,7.62
2022-10-11T01:50:47.354Z,7.61
2022-10-11T01:51:47.707Z,7.61
2022-10-11T01:52:47.356Z,7.58
2022-10-11T01:53:47.341Z,7.58
2022-10-11T01:55:08.704Z,7.55
2022-10-11T01:55:48.373Z,7.56
2022-10-11T01:56:47.300Z,7.53
2022-10-11T01:57:47.281Z,7.53
2022-10-11T01:58:47.304Z,7.51
2022-10-11T01:59:47.263Z,7.53
2022-10-11T02:00:47.252Z,7.48
2022-10-11T02:01:47.262Z,7.48
2022-10-11T02:02:47.243Z,7.48
2022-10-11T02:03:47.222Z,7.48
2022-10-11T02:04:47.212Z,7.47
2022-10-11T02:05:47.192Z,7.47
2022-10-11T02:06:47.184Z,7.44
2022-10-11T02:07:47.162Z,7.44
2022-10-11T02:08:47.647Z,7.41
2022-10-11T02:09:47.224Z,7.43
2022-10-11T02:10:47.151Z,7.41
2022-10-11T02:11:47.324Z,7.41
2022-10-11T02:12:47.121Z,7.40
2022-10-11T02:13:47.222Z,7.39
2022-10-11T02:14:47.102Z,7.36
2022-10-11T02:15:47.100Z,7.37
2022-10-11T02:16:47.210Z,7.36
2022-10-11T02:17:47.060Z,7.36
2022-10-11T02:18:47.083Z,7.33
2022-10-11T02:19:47.042Z,7.33
2022-10-11T02:20:47.032Z,7.32
2022-10-11T02:21:47.031Z,7.31
2022-10-11T02:22:47.047Z,7.29
2022-10-11T02:23:47.009Z,7.28
2022-10-11T02:24:46.992Z,7.28
2022-10-11T02:25:46.970Z,7.28
2022-10-11T02:26:46.970Z,7.25
2022-10-11T02:27:46.955Z,7.25
2022-10-11T02:28:46.981Z,7.21
2022-10-11T02:29:46.929Z,7.21
2022-10-11T02:30:46.920Z,7.21
2022-10-11T02:31:46.960Z,7.22
2022-10-11T02:32:46.899Z,7.19
2022-10-11T02:33:46.899Z,7.19
2022-10-11T02:34:46.900Z,7.15
2022-10-11T02:35:46.867Z,7.15
2022-10-11T02:36:46.860Z,7.14
2022-10-11T02:37:46.849Z,7.14
2022-10-11T02:38:46.908Z,7.13
2022-10-11T02:39:46.833Z,7.13
2022-10-11T02:40:46.828Z,7.11
2022-10-11T02:41:46.813Z,7.08
2022-10-11T02:42:46.798Z,7.10
2022-10-11T02:43:46.797Z,7.08
2022-10-11T02:44:46.777Z,7.05
2022-10-11T02:45:46.855Z,7.10
2022-10-11T02:46:46.757Z,7.07
2022-10-11T02:47:46.757Z,7.08
2022-10-11T02:48:46.749Z,7.08
2022-10-11T02:49:46.718Z,7.08
2022-10-11T02:50:46.717Z,7.07
2022-10-11T02:51:46.717Z,7.08
2022-10-11T02:52:46.715Z,7.05
2022-10-11T02:53:46.696Z,7.04
2022-10-11T02:54:46.668Z,7.04
2022-10-11T02:55:46.658Z,7.04
2022-10-11T02:56:46.648Z,7.04
2022-10-11T02:57:46.673Z,7.05
2022-10-11T02:58:46.625Z,7.03
2022-10-11T02:59:46.614Z,7.07
2022-10-11T03:00:46.608Z,7.04
2022-10-11T03:01:46.817Z,7.04
2022-10-11T03:02:46.586Z,7.03
2022-10-11T03:03:46.574Z,7.03
2022-10-11T03:04:46.575Z,7.03
2022-10-11T03:05:46.551Z,7.00
2022-10-11T03:06:46.556Z,7.01
2022-10-11T03:07:46.533Z,7.00
2022-10-11T03:08:46.526Z,6.97
2022-10-11T03:09:46.514Z,6.97
2022-10-11T03:10:46.515Z,6.96
2022-10-11T03:11:46.493Z,6.96
2022-10-11T03:12:46.554Z,6.95
2022-10-11T03:13:46.469Z,6.95
2022-10-11T03:14:46.475Z,6.92
2022-10-11T03:15:46.444Z,6.93
2022-10-11T03:16:46.436Z,6.90
2022-10-11T03:17:46.425Z,6.90
2022-10-11T03:18:46.428Z,6.89
2022-10-11T03:19:46.420Z,6.92
2022-10-11T03:20:46.393Z,6.89
2022-10-11T03:21:46.384Z,6.92
2022-10-11T03:22:46.377Z,6.87
2022-10-11T03:23:46.376Z,6.90
2022-10-11T03:24:46.364Z,6.90
2022-10-11T03:25:46.333Z,6.90
2022-10-11T03:26:46.356Z,6.85
2022-10-11T03:27:46.324Z,6.86
2022-10-11T03:28:46.433Z,6.82
2022-10-11T03:29:46.322Z,6.85
2022-10-11T03:30:46.282Z,6.85
2022-10-11T03:31:46.272Z,6.86
2022-10-11T03:32:46.263Z,6.83
2022-10-11T03:33:46.252Z,6.85
2022-10-11T03:34:46.249Z,6.82
2022-10-11T03:35:46.237Z,6.82
2022-10-11T03:36:46.221Z,6.82
2022-10-11T03:37:46.232Z,6.78
2022-10-11T03:38:46.200Z,6.77
2022-10-11T03:39:46.192Z,6.78
2022-10-11T03:40:46.183Z,6.75
2022-10-11T03:41:46.175Z,6.78
2022-10-11T03:42:46.161Z,6.75
2022-10-11T03:43:46.160Z,6.75
2022-10-11T03:44:46.163Z,6.77
2022-10-11T03:45:46.128Z,6.77
2022-10-11T03:46:46.134Z,6.72
2022-10-11T03:47:46.113Z,6.75
2022-10-11T03:48:46.092Z,6.74
2022-10-11T03:49:46.113Z,6.75
2022-10-11T03:50:46.098Z,6.74
2022-10-11T03:51:46.070Z,6.74
2022-10-11T03:52:46.050Z,6.72
2022-10-11T03:53:46.042Z,6.77
2022-10-11T03:54:46.032Z,6.75
2022-10-11T03:55:46.029Z,6.77
2022-10-11T03:56:46.102Z,6.78
2022-10-11T03:57:46.000Z,6.80
2022-10-11T03:58:45.990Z,6.83
2022-10-11T03:59:46.011Z,6.85
2022-10-11T04:00:45.993Z,6.85
2022-10-11T04:01:46.119Z,6.85
2022-10-11T04:02:45.948Z,6.86
2022-10-11T04:03:45.928Z,6.87
2022-10-11T04:04:45.929Z,6.87
2022-10-11T04:05:45.946Z,6.87
2022-10-11T04:06:45.939Z,6.90
2022-10-11T04:07:45.893Z,6.90
2022-10-11T04:08:45.878Z,6.92
2022-10-11T04:09:45.880Z,6.95
2022-10-11T04:10:45.858Z,6.95
2022-10-11T04:11:46.116Z,6.95
2022-10-11T04:12:45.858Z,6.96
2022-10-11T04:13:45.870Z,6.97
2022-10-11T04:14:45.817Z,6.96
2022-10-11T04:15:45.807Z,6.96
2022-10-11T04:16:45.802Z,6.97
2022-10-11T04:17:45.777Z,6.97
2022-10-11T04:18:45.776Z,6.96
2022-10-11T04:19:45.762Z,6.96
2022-10-11T04:20:45.763Z,6.95
2022-10-11T04:21:45.737Z,6.93
2022-10-11T04:22:45.746Z,6.90
2022-10-11T04:23:45.716Z,6.93
2022-10-11T04:24:45.929Z,6.90
2022-10-11T04:25:45.698Z,6.92
2022-10-11T04:26:45.714Z,6.87
2022-10-11T04:27:45.676Z,6.87
2022-10-11T04:28:45.730Z,6.85
2022-10-11T04:29:45.656Z,6.86
2022-10-11T04:30:45.656Z,6.85
2022-10-11T04:31:45.634Z,6.83
2022-10-11T04:32:45.645Z,6.82
2022-10-11T04:33:45.621Z,6.82
2022-10-11T04:34:45.604Z,6.78
2022-10-11T04:35:45.614Z,6.78
2022-10-11T04:36:49.739Z,6.77
2022-10-11T04:37:45.574Z,6.77
2022-10-11T04:38:45.555Z,6.75
2022-10-11T04:39:46.686Z,6.74
2022-10-11T04:40:45.576Z,6.72
2022-10-11T04:41:45.535Z,6.70
2022-10-11T04:42:45.514Z,6.65
2022-10-11T04:43:45.504Z,6.67
2022-10-11T04:44:45.492Z,6.65
2022-10-11T04:45:45.564Z,6.64
2022-10-11T04:46:45.471Z,6.60
2022-10-11T04:47:45.471Z,6.57
2022-10-11T04:48:45.454Z,6.56
2022-10-11T04:49:45.477Z,6.56
2022-10-11T04:50:45.444Z,6.56
2022-10-11T04:51:45.421Z,6.54
2022-10-11T04:52:45.413Z,6.52
2022-10-11T04:53:45.401Z,6.52
2022-10-11T04:54:45.416Z,6.53
2022-10-11T04:55:45.394Z,6.52
2022-10-11T04:56:45.363Z,6.52
2022-10-11T04:57:45.361Z,6.50
2022-10-11T04:58:45.376Z,6.49
2022-10-11T04:59:49.893Z,6.50
2022-10-11T05:00:45.352Z,6.47
2022-10-11T05:01:45.394Z,6.47
2022-10-11T05:02:45.377Z,6.44
2022-10-11T05:03:45.298Z,6.44
2022-10-11T05:04:45.286Z,6.43
2022-10-11T05:05:45.282Z,6.41
2022-10-11T05:06:45.269Z,6.39
2022-10-11T05:07:45.255Z,6.39
2022-10-11T05:08:45.231Z,6.38
2022-10-11T05:09:45.272Z,6.38
2022-10-11T05:10:45.212Z,6.38
2022-10-11T05:11:45.211Z,6.35
2022-10-11T05:12:45.215Z,6.35
2022-10-11T05:13:45.190Z,6.35
2022-10-11T05:14:45.191Z,6.35
2022-10-11T05:15:45.169Z,6.32
2022-10-11T05:16:45.161Z,6.32
2022-10-11T05:17:45.141Z,6.32
2022-10-11T05:18:45.127Z,6.31
2022-10-11T05:19:45.150Z,6.31
2022-10-11T05:20:45.108Z,6.32
2022-10-11T05:21:45.112Z,6.32
2022-10-11T05:22:45.104Z,6.31
2022-10-11T05:23:45.080Z,6.32
2022-10-11T05:24:45.067Z,6.29
2022-10-11T05:25:45.090Z,6.29
2022-10-11T05:26:45.070Z,6.26
2022-10-11T05:27:45.029Z,6.29
2022-10-11T05:28:45.070Z,6.25
2022-10-11T05:29:45.010Z,6.25
2022-10-11T05:30:46.022Z,6.22
2022-10-11T05:31:45.028Z,6.22
2022-10-11T05:32:44.989Z,6.22
2022-10-11T05:33:44.968Z,6.25
2022-10-11T05:34:44.948Z,6.20
2022-10-11T05:35:44.969Z,6.22
2022-10-11T05:36:44.918Z,6.20
2022-10-11T05:37:44.918Z,6.20
2022-10-11T05:38:44.969Z,6.19
2022-10-11T05:39:44.906Z,6.20
2022-10-11T05:40:44.888Z,6.16
2022-10-11T05:41:44.912Z,6.19
2022-10-11T05:42:44.887Z,6.17
2022-10-11T05:43:44.875Z,6.19
2022-10-11T05:44:44.845Z,6.17
2022-10-11T05:45:44.893Z,6.19
2022-10-11T05:46:44.827Z,6.17
2022-10-11T05:47:44.816Z,6.17
2022-10-11T05:48:44.836Z,6.17
2022-10-11T05:49:44.813Z,6.16
2022-10-11T05:50:44.786Z,6.15
2022-10-11T05:51:44.804Z,6.15
2022-10-11T05:52:44.777Z,6.16
2022-10-11T05:53:44.755Z,6.16
2022-10-11T05:54:44.737Z,6.17
2022-10-11T05:55:44.747Z,6.16
2022-10-11T05:56:44.748Z,6.16
2022-10-11T05:57:44.720Z,6.17
2022-10-11T05:58:44.735Z,6.19
2022-10-11T05:59:44.695Z,6.20
2022-10-11T06:00:44.664Z,6.20
2022-10-11T06:01:44.792Z,6.25
2022-10-11T06:02:44.666Z,6.22
2022-10-11T06:03:44.644Z,6.25
2022-10-11T06:04:44.664Z,6.26
2022-10-11T06:05:44.634Z,6.28
2022-10-11T06:06:44.613Z,6.26
2022-10-11T06:07:44.595Z,6.28
2022-10-11T06:08:44.603Z,6.29
2022-10-11T06:09:44.641Z,6.29
2022-10-11T06:10:44.564Z,6.31
2022-10-11T06:11:44.601Z,6.32
2022-10-11T06:12:44.557Z,6.34
2022-10-11T06:13:44.542Z,6.35
2022-10-11T06:14:44.573Z,6.35
2022-10-11T06:15:44.564Z,6.38
2022-10-11T06:16:44.532Z,6.39
2022-10-11T06:17:44.512Z,6.41
2022-10-11T06:18:44.525Z,6.44
2022-10-11T06:19:44.485Z,6.44
2022-10-11T06:20:44.472Z,6.47
2022-10-11T06:21:44.476Z,6.52
2022-10-11T06:22:44.441Z,6.49
2022-10-11T06:23:44.493Z,6.50
2022-10-11T06:24:44.470Z,6.53
2022-10-11T06:25:44.412Z,6.56
2022-10-11T06:26:44.416Z,6.56
2022-10-11T06:27:44.425Z,6.62
2022-10-11T06:28:44.458Z,6.65
2022-10-11T06:29:44.399Z,6.65
2022-10-11T06:30:44.351Z,6.71
2022-10-11T06:31:44.380Z,6.71
2022-10-11T06:32:45.012Z,6.77
2022-10-11T06:33:44.320Z,6.78
2022-10-11T06:34:44.361Z,6.82
2022-10-11T06:35:44.319Z,6.89
2022-10-11T06:36:44.365Z,6.89
2022-10-11T06:37:44.284Z,6.93
2022-10-11T06:38:45.366Z,7.00
2022-10-11T06:39:44.259Z,7.04
2022-10-11T06:40:44.649Z,7.07
2022-10-11T06:41:44.260Z,7.10
2022-10-11T06:42:44.269Z,7.13
2022-10-11T06:43:44.219Z,7.19
2022-10-11T06:44:44.287Z,7.22
2022-10-11T06:45:44.201Z,7.26
2022-10-11T06:46:44.298Z,7.29
2022-10-11T06:47:44.209Z,7.32
2022-10-11T06:48:44.208Z,7.37
2022-10-11T06:49:44.167Z,7.39
2022-10-11T06:51:00.462Z,7.41
2022-10-11T06:51:45.230Z,7.46
2022-10-11T06:52:44.132Z,7.47
2022-10-11T06:53:44.108Z,7.51
2022-10-11T06:54:45.199Z,7.55
2022-10-11T06:55:44.087Z,7.58
2022-10-11T06:56:44.111Z,7.59
2022-10-11T06:57:44.134Z,7.64
2022-10-11T06:58:44.119Z,7.64
2022-10-11T06:59:44.090Z,7.64
2022-10-11T07:00:44.126Z,7.64
2022-10-11T07:01:44.087Z,7.67
2022-10-11T07:02:44.035Z,7.69
2022-10-11T07:03:44.047Z,7.74
2022-10-11T07:04:44.007Z,7.74
2022-10-11T07:05:43.978Z,7.75
2022-10-11T07:06:43.974Z,7.78
2022-10-11T07:07:43.965Z,7.78
2022-10-11T07:08:43.988Z,7.78
2022-10-11T07:09:43.935Z,7.78
2022-10-11T07:10:43.956Z,7.83
2022-10-11T07:11:43.916Z,7.83
2022-10-11T07:12:43.916Z,7.85
2022-10-11T07:13:43.908Z,7.84
2022-10-11T07:14:43.877Z,7.88
2022-10-11T07:15:43.883Z,7.90
2022-10-11T07:16:43.903Z,7.91
2022-10-11T07:17:43.855Z,7.93
2022-10-11T07:18:43.834Z,7.96
2022-10-11T07:19:43.824Z,7.96
2022-10-11T07:20:43.815Z,7.98
2022-10-11T07:21:43.806Z,7.99
2022-10-11T07:22:43.797Z,7.99
2022-10-11T07:23:43.804Z,7.98
2022-10-11T07:24:43.866Z,7.99
2022-10-11T07:25:44.148Z,8.01
2022-10-11T07:26:43.774Z,8.02
2022-10-11T07:27:43.753Z,8.06
2022-10-11T07:28:43.766Z,8.06
2022-10-11T07:29:43.726Z,8.09
2022-10-11T07:30:43.731Z,8.08
2022-10-11T07:31:43.756Z,8.09
2022-10-11T07:32:43.754Z,8.11
2022-10-11T07:33:43.785Z,8.16
2022-10-11T07:34:43.713Z,8.17
2022-10-11T07:35:48.178Z,8.21
2022-10-11T07:36:43.680Z,8.23
2022-10-11T07:37:43.640Z,8.24
2022-10-11T07:38:43.624Z,8.27
2022-10-11T07:39:43.612Z,8.27
2022-10-11T07:40:43.603Z,8.31
2022-10-11T07:41:46.091Z,8.34
2022-10-11T07:42:43.583Z,8.35
2022-10-11T07:43:43.799Z,8.39
2022-10-11T07:44:43.555Z,8.41
2022-10-11T07:45:43.556Z,8.46
2022-10-11T07:46:44.121Z,8.52
2022-10-11T07:47:43.550Z,8.57
2022-10-11T07:48:43.520Z,8.61
2022-10-11T07:49:43.509Z,8.66
2022-10-11T07:50:43.499Z,8.69
2022-10-11T07:51:43.522Z,8.72
2022-10-11T07:52:43.511Z,8.72
2022-10-11T07:53:43.491Z,8.75
2022-10-11T07:54:43.460Z,8.77
2022-10-11T07:55:43.494Z,8.82
2022-10-11T07:56:43.498Z,8.89
2022-10-11T07:57:43.440Z,8.92
2022-10-11T07:58:43.456Z,8.97
2022-10-11T07:59:47.822Z,9.08
2022-10-11T08:00:44.457Z,9.12
2022-10-11T08:01:43.467Z,9.18
2022-10-11T08:02:43.400Z,9.22
2022-10-11T08:03:43.440Z,9.33
2022-10-11T08:04:43.370Z,9.37
2022-10-11T08:05:43.371Z,9.44
2022-10-11T08:06:43.357Z,9.44
2022-10-11T08:07:43.332Z,9.48
2022-10-11T08:08:43.338Z,9.49
2022-10-11T08:09:43.317Z,9.55
2022-10-11T08:10:43.318Z,9.63
2022-10-11T08:11:43.298Z,9.67
2022-10-11T08:12:43.287Z,9.74
2022-10-11T08:13:43.280Z,9.82
2022-10-11T08:14:43.348Z,9.88
2022-10-11T08:15:43.277Z,9.94
2022-10-11T08:16:43.257Z,9.99
2022-10-11T08:17:43.247Z,10.06
2022-10-11T08:18:43.279Z,10.10
2022-10-11T08:19:43.237Z,10.17
2022-10-11T08:20:43.179Z,10.25
2022-10-11T08:21:43.268Z,10.31
2022-10-11T08:22:43.201Z,10.41
2022-10-11T08:23:43.178Z,10.51
2022-10-11T08:24:43.149Z,10.61
2022-10-11T08:25:43.119Z,10.71
2022-10-11T08:26:43.139Z,10.76
2022-10-11T08:27:43.159Z,10.83
2022-10-11T08:28:43.192Z,10.89
2022-10-11T08:29:43.142Z,10.95
2022-10-11T08:30:43.097Z,11.02
2022-10-11T08:31:43.158Z,11.16
2022-10-11T08:32:43.188Z,11.26
2022-10-11T08:33:43.128Z,11.34
2022-10-11T08:34:43.067Z,11.41
2022-10-11T08:35:43.221Z,11.49
2022-10-11T08:36:43.066Z,11.58
2022-10-11T08:37:43.028Z,11.67
2022-10-11T08:38:43.038Z,11.71
2022-10-11T08:39:42.991Z,11.78
2022-10-11T08:40:43.031Z,11.88
2022-10-11T08:41:43.017Z,11.96
2022-10-11T08:42:43.012Z,12.05
2022-10-11T08:43:43.034Z,12.14
2022-10-11T08:45:14.540Z,12.20
2022-10-11T08:45:43.928Z,12.30
2022-10-11T08:46:42.956Z,12.37
2022-10-11T08:47:42.905Z,12.48
2022-10-11T08:48:42.917Z,12.58
2022-10-11T08:49:42.897Z,12.70
2022-10-11T08:50:42.854Z,12.80
2022-10-11T08:51:42.847Z,12.94
2022-10-11T08:52:42.864Z,13.08
2022-10-11T08:53:42.846Z,13.23
2022-10-11T08:54:42.806Z,13.37
2022-10-11T08:55:42.814Z,13.52
2022-10-11T08:56:42.798Z,13.65
2022-10-11T08:57:42.797Z,13.80
2022-10-11T08:58:42.793Z,13.89
2022-10-11T08:59:42.761Z,14.03
2022-10-11T09:00:42.743Z,14.11
2022-10-11T09:01:42.877Z,14.19
2022-10-11T09:03:06.914Z,14.31
2022-10-11T09:03:43.694Z,14.37
2022-10-11T09:04:42.700Z,14.45
2022-10-11T09:05:42.710Z,14.53
2022-10-11T09:06:42.683Z,14.59
2022-10-11T09:07:42.664Z,14.67
2022-10-11T09:08:42.662Z,14.77
2022-10-11T09:09:42.675Z,14.85
2022-10-11T09:10:42.676Z,14.90
2022-10-11T09:11:42.647Z,14.96
2022-10-11T09:12:42.607Z,15.10
2022-10-11T09:13:42.584Z,15.11
2022-10-11T09:14:42.584Z,15.17
2022-10-11T09:15:42.564Z,15.27
2022-10-11T09:16:42.575Z,15.36
2022-10-11T09:17:42.714Z,15.45
2022-10-11T09:18:42.643Z,15.50
2022-10-11T09:19:42.596Z,15.54
2022-10-11T09:20:42.564Z,15.60
2022-10-11T09:21:42.573Z,15.67
2022-10-11T09:22:42.531Z,15.73
2022-10-11T09:23:42.505Z,15.81
2022-10-11T09:24:43.146Z,15.87
2022-10-11T09:25:42.489Z,15.92
2022-10-11T09:26:42.476Z,15.99
2022-10-11T09:28:01.928Z,16.05
2022-10-11T09:28:43.456Z,16.10
2022-10-11T09:29:42.451Z,16.18
2022-10-11T09:30:42.418Z,16.24
2022-10-11T09:31:42.452Z,16.28
2022-10-11T09:32:42.400Z,16.36
2022-10-11T09:33:42.387Z,16.41
2022-10-11T09:34:42.443Z,16.49
2022-10-11T09:35:42.357Z,16.55
2022-10-11T09:36:42.344Z,16.55
2022-10-11T09:37:42.337Z,16.57
2022-10-11T09:38:42.313Z,16.44
2022-10-11T09:39:42.302Z,16.41
2022-10-11T09:40:42.325Z,16.51
2022-10-11T09:41:42.363Z,16.66
2022-10-11T09:42:42.304Z,16.79
2022-10-11T09:43:42.266Z,16.84
2022-10-11T09:44:42.304Z,16.83
2022-10-11T09:45:45.709Z,16.80
2022-10-11T09:46:43.306Z,16.82
2022-10-11T09:47:42.227Z,16.84
2022-10-11T09:48:42.229Z,16.97
2022-10-11T09:49:42.263Z,16.97
2022-10-11T09:50:42.251Z,16.97
2022-10-11T09:51:42.232Z,16.89
2022-10-11T09:52:42.227Z,16.86
2022-10-11T09:53:42.265Z,16.83
2022-10-11T09:54:42.199Z,16.80
2022-10-11T09:55:42.205Z,16.79
2022-10-11T09:56:42.155Z,16.72
2022-10-11T09:57:42.123Z,16.68
2022-10-11T09:58:42.804Z,16.59
2022-10-11T09:59:42.104Z,16.58
2022-10-11T10:00:42.804Z,16.50
2022-10-11T10:01:42.149Z,16.43
2022-10-11T10:02:42.105Z,16.46
2022-10-11T10:03:42.091Z,16.46
2022-10-11T10:04:42.025Z,16.49
2022-10-11T10:05:42.405Z,16.46
2022-10-11T10:06:42.021Z,16.47
2022-10-11T10:07:41.985Z,16.44
2022-10-11T10:08:41.995Z,16.43
2022-10-11T10:09:41.974Z,16.43
2022-10-11T10:10:42.000Z,16.39
2022-10-11T10:11:41.986Z,16.31
2022-10-11T10:12:41.945Z,16.24
2022-10-11T10:13:41.938Z,16.22
2022-10-11T10:14:41.922Z,16.18
2022-10-11T10:15:41.945Z,16.18
2022-10-11T10:16:41.932Z,16.13
2022-10-11T10:17:41.875Z,16.16
2022-10-11T10:18:41.898Z,16.16
2022-10-11T10:19:44.940Z,16.16
2022-10-11T10:20:41.931Z,16.12
2022-10-11T10:21:41.876Z,16.09
2022-10-11T10:22:41.865Z,16.06
2022-10-11T10:23:42.735Z,16.03
2022-10-11T10:24:41.840Z,16.02
2022-10-11T10:25:43.715Z,16.00
2022-10-11T10:26:41.795Z,16.00
2022-10-11T10:27:41.815Z,16.00
2022-10-11T10:28:41.845Z,16.02
2022-10-11T10:29:42.555Z,16.02
2022-10-11T10:30:41.815Z,16.05
2022-10-11T10:32:01.844Z,16.08
2022-10-11T10:32:47.539Z,16.10
2022-10-11T10:33:42.744Z,16.12
2022-10-11T10:34:41.734Z,16.22
2022-10-11T10:35:41.717Z,16.32
2022-10-11T10:36:41.735Z,16.40
2022-10-11T10:37:41.705Z,16.49
2022-10-11T10:38:41.767Z,16.49
2022-10-11T10:39:41.675Z,16.62
2022-10-11T10:40:41.646Z,16.72
2022-10-11T10:41:41.645Z,16.65
2022-10-11T10:42:41.629Z,16.65
2022-10-11T10:43:41.604Z,16.83
2022-10-11T10:44:41.586Z,17.05
2022-10-11T10:45:41.565Z,17.28
2022-10-11T10:46:41.598Z,17.46
2022-10-11T10:47:41.555Z,17.63
2022-10-11T10:49:12.030Z,17.79
2022-10-11T10:49:53.568Z,17.97
2022-10-11T10:50:42.525Z,18.11
2022-10-11T10:51:41.505Z,18.08
2022-10-11T10:52:41.504Z,18.02
2022-10-11T10:53:41.475Z,18.12
2022-10-11T10:54:41.505Z,18.26
2022-10-11T10:55:41.481Z,18.27
2022-10-11T10:56:41.460Z,18.34
2022-10-11T10:57:41.437Z,18.46
2022-10-11T10:58:41.434Z,18.57
2022-10-11T10:59:41.424Z,18.61
2022-10-11T11:00:41.437Z,18.60
2022-10-11T11:01:41.448Z,18.64
2022-10-11T11:02:41.830Z,18.68
2022-10-11T11:03:41.414Z,18.86
2022-10-11T11:04:41.385Z,19.05
2022-10-11T11:05:41.346Z,19.24
2022-10-11T11:06:41.334Z,19.17
2022-10-11T11:07:41.343Z,19.12
2022-10-11T11:08:41.364Z,19.38
2022-10-11T11:09:41.321Z,19.75
2022-10-11T11:10:41.288Z,20.07
2022-10-11T11:11:41.275Z,20.48
2022-10-11T11:12:41.314Z,21.07
2022-10-11T11:13:41.279Z,21.65
2022-10-11T11:14:41.257Z,21.75
2022-10-11T11:15:41.250Z,22.25
2022-10-11T11:16:41.227Z,22.65
2022-10-11T11:17:41.216Z,23.08
2022-10-11T11:18:41.207Z,23.48
2022-10-11T11:19:41.206Z,23.95
2022-10-11T11:20:41.196Z,24.37
2022-10-11T11:21:41.791Z,24.71
2022-10-11T11:22:41.213Z,25.06
2022-10-11T11:23:41.151Z,25.44
2022-10-11T11:24:41.145Z,25.77
2022-10-11T11:25:44.714Z,26.07
2022-10-11T11:26:44.174Z,26.31
2022-10-11T11:27:41.097Z,26.46
2022-10-11T11:28:41.171Z,26.63
2022-10-11T11:29:41.096Z,26.73
2022-10-11T11:30:41.077Z,26.76
2022-10-11T11:31:41.126Z,26.64
2022-10-11T11:32:45.452Z,26.61
2022-10-11T11:33:43.989Z,26.16
2022-10-11T11:34:42.117Z,26.23
2022-10-11T11:35:41.032Z,26.42
2022-10-11T11:36:41.019Z,26.55
2022-10-11T11:37:41.005Z,26.61
2022-10-11T11:38:41.000Z,26.52
2022-10-11T11:39:41.015Z,26.56
2022-10-11T11:40:40.970Z,26.59
2022-10-11T11:41:40.968Z,25.12
2022-10-11T11:42:40.949Z,24.19
2022-10-11T11:43:40.928Z,23.55
2022-10-11T11:44:40.916Z,24.32
2022-10-11T11:45:40.899Z,24.47
2022-10-11T11:46:40.918Z,23.64
2022-10-11T11:47:40.877Z,23.23
2022-10-11T11:48:40.931Z,23.77
2022-10-11T11:49:40.921Z,24.16
2022-10-11T11:50:40.872Z,24.46
2022-10-11T11:51:40.859Z,24.77
2022-10-11T11:52:40.878Z,24.88
2022-10-11T11:53:40.860Z,25.11
2022-10-11T11:54:40.819Z,25.14
2022-10-11T11:55:40.821Z,25.33
2022-10-11T11:56:40.810Z,25.63
2022-10-11T11:57:40.834Z,25.85
2022-10-11T11:58:40.763Z,25.70
2022-10-11T11:59:40.760Z,26.11
2022-10-11T12:00:40.892Z,26.66
2022-10-11T12:01:40.853Z,27.15
2022-10-11T12:02:40.752Z,27.41
2022-10-11T12:03:41.856Z,27.67
2022-10-11T12:04:40.701Z,28.01
2022-10-11T12:05:40.764Z,28.25
2022-10-11T12:07:04.106Z,28.45
2022-10-11T12:07:41.751Z,28.71
2022-10-11T12:08:40.693Z,28.71
2022-10-11T12:09:40.671Z,28.84
2022-10-11T12:10:40.706Z,29.06
2022-10-11T12:11:40.682Z,29.25
2022-10-11T12:12:40.772Z,29.46
2022-10-11T12:13:40.632Z,29.52
2022-10-11T12:14:40.645Z,29.52
2022-10-11T12:15:40.611Z,29.71
2022-10-11T12:16:40.631Z,29.95
2022-10-11T12:17:40.613Z,30.08
2022-10-11T12:18:42.749Z,30.49
2022-10-11T12:19:40.617Z,30.88
2022-10-11T12:20:40.567Z,31.18
2022-10-11T12:21:40.585Z,31.42
2022-10-11T12:22:40.570Z,31.41
2022-10-11T12:23:40.524Z,30.61
2022-10-11T12:24:40.520Z,28.97
2022-10-11T12:25:40.572Z,27.40
2022-10-11T12:26:40.492Z,27.90
2022-10-11T12:27:40.557Z,29.03
2022-10-11T12:28:40.625Z,29.99
2022-10-11T12:29:40.454Z,30.48
2022-10-11T12:30:40.424Z,30.65
2022-10-11T12:31:45.895Z,30.85
2022-10-11T12:32:41.405Z,31.14
2022-10-11T12:33:40.416Z,31.39
2022-10-11T12:35:41.333Z,29.37
2022-10-11T12:36:40.360Z,27.50
2022-10-11T12:37:40.426Z,26.07
2022-10-11T12:38:40.388Z,25.03
2022-10-11T12:39:40.371Z,24.28
2022-10-11T12:40:40.356Z,23.74
2022-10-11T12:41:40.392Z,23.37
2022-10-11T12:42:40.416Z,23.01
2022-10-11T12:43:40.307Z,23.10
2022-10-11T12:44:40.275Z,22.77
2022-10-11T12:45:40.267Z,22.43
2022-10-11T12:46:40.336Z,21.99
2022-10-11T12:47:40.229Z,21.72
2022-10-11T12:48:41.209Z,21.45
2022-10-11T12:49:40.201Z,21.22
2022-10-11T12:50:40.200Z,21.03
2022-10-11T12:51:41.308Z,20.85
2022-10-11T12:52:40.207Z,20.77
2022-10-11T12:53:40.229Z,21.28
2022-10-11T12:54:40.207Z,21.89
2022-10-11T12:55:40.186Z,21.60
2022-10-11T12:56:40.197Z,21.29
2022-10-11T12:57:45.203Z,21.65
2022-10-11T12:58:41.210Z,24.01
2022-10-11T12:59:40.136Z,25.68
2022-10-11T13:00:40.221Z,26.55
2022-10-11T13:01:40.178Z,26.56
2022-10-11T13:02:40.094Z,25.96
2022-10-11T13:03:40.118Z,25.18
2022-10-11T13:04:40.138Z,24.55
2022-10-11T13:05:44.615Z,24.14
2022-10-11T13:06:41.069Z,23.55
2022-10-11T13:07:40.076Z,22.83
2022-10-11T13:08:40.131Z,22.00
2022-10-11T13:09:40.039Z,21.45